createdAt,value
2019-05-03T00:02:23.285Z,98509.25
2019-05-03T00:05:02.291Z,98501.13
2019-05-03T00:07:32.722Z,98504.75
2019-05-03T00:10:03.701Z,98507.87
2019-05-03T00:12:33.960Z,98512.31
2019-05-03T00:15:14.583Z,98511.83
2019-05-03T00:17:44.725Z,98420.83
2019-05-03T00:20:15.445Z,98513.66
2019-05-03T00:22:45.657Z,98517.09
2019-05-03T00:25:16.407Z,98517.39
2019-05-03T00:27:46.527Z,98520.80
2019-05-03T00:30:16.638Z,98514.95
2019-05-03T00:32:46.769Z,98514.18
2019-05-03T00:35:22.575Z,98518.95
2019-05-03T00:37:54.742Z,98519.17
2019-05-03T00:40:29.444Z,98514.12
2019-05-03T00:43:02.303Z,98517.94
2019-05-03T00:45:34.210Z,98515.13
2019-05-03T00:48:05.789Z,98513.81
2019-05-03T00:50:37.149Z,98514.95
2019-05-03T00:53:11.715Z,98521.67
2019-05-03T00:55:42.335Z,98523.44
2019-05-03T00:58:13.009Z,98522.40
2019-05-03T01:00:45.869Z,98528.06
2019-05-03T01:03:18.406Z,98526.95
2019-05-03T01:05:49.883Z,98524.36
2019-05-03T01:08:22.458Z,98532.77
2019-05-03T01:10:53.825Z,98528.47
2019-05-03T01:13:24.244Z,98527.11
2019-05-03T01:16:16.476Z,98526.91
2019-05-03T01:18:46.872Z,98527.70
2019-05-03T01:21:17.594Z,98532.94
2019-05-03T01:23:48.040Z,98535.84
2019-05-03T01:26:18.611Z,98543.22
2019-05-03T01:28:52.114Z,98540.58
2019-05-03T01:31:23.129Z,98539.78
2019-05-03T01:33:53.587Z,98544.68
2019-05-03T01:36:24.388Z,98549.05
2019-05-03T01:38:55.161Z,98548.06
2019-05-03T01:41:26.511Z,98547.17
2019-05-03T01:43:57.245Z,98548.02
2019-05-03T01:46:28.463Z,98547.45
2019-05-03T01:49:18.310Z,98552.52
2019-05-03T01:52:25.962Z,98550.02
2019-05-03T01:54:56.157Z,98552.94
2019-05-03T01:57:26.313Z,98552.14
2019-05-03T01:59:56.641Z,98553.39
2019-05-03T02:02:46.219Z,98554.61
2019-05-03T02:05:39.757Z,98553.52
2019-05-03T02:08:16.379Z,98550.11
2019-05-03T02:10:52.407Z,98563.85
2019-05-03T02:13:23.003Z,98556.14
2019-05-03T02:15:53.362Z,98560.09
2019-05-03T02:18:24.043Z,98555.92
2019-05-03T02:20:57.577Z,98565.22
2019-05-03T02:23:28.689Z,98569.68
2019-05-03T02:25:59.357Z,98566.94
2019-05-03T02:28:32.705Z,98563.23
2019-05-03T02:31:03.758Z,98564.83
2019-05-03T02:33:34.122Z,98568.14
2019-05-03T02:36:04.226Z,98576.66
2019-05-03T02:38:34.369Z,98578.77
2019-05-03T02:41:05.110Z,98582.97
2019-05-03T02:43:45.008Z,98584.38
2019-05-03T02:46:36.412Z,98586.14
2019-05-03T02:49:26.478Z,98587.55
2019-05-03T02:51:56.479Z,98587.14
2019-05-03T02:54:27.312Z,98584.63
2019-05-03T02:56:58.589Z,98589.19
2019-05-03T02:59:31.578Z,98589.25
2019-05-03T03:02:01.814Z,98592.98
2019-05-03T03:04:35.127Z,98595.28
2019-05-03T03:07:06.475Z,98593.35
2019-05-03T03:09:37.152Z,98597.80
2019-05-03T03:12:10.432Z,98599.02
2019-05-03T03:14:45.512Z,98609.55
2019-05-03T03:17:18.003Z,98610.28
2019-05-03T03:19:49.904Z,98627.50
2019-05-03T03:22:21.716Z,98523.11
2019-05-03T03:24:55.959Z,98609.50
2019-05-03T03:27:27.559Z,98616.05
2019-05-03T03:30:29.077Z,98528.39
2019-05-03T03:32:59.462Z,98627.56
2019-05-03T03:35:30.744Z,98631.72
2019-05-03T03:38:01.590Z,98629.90
2019-05-03T03:40:31.943Z,98634.14
2019-05-03T03:43:06.893Z,98637.85
2019-05-03T03:45:39.632Z,98637.40
2019-05-03T03:48:11.956Z,98643.79
2019-05-03T03:50:47.502Z,98656.52
2019-05-03T03:53:21.021Z,98659.86
2019-05-03T03:55:56.227Z,98663.78
2019-05-03T03:58:27.099Z,98669.84
2019-05-03T04:00:59.056Z,98678.29
2019-05-03T04:03:30.879Z,98614.58
2019-05-03T04:06:01.498Z,98676.40
2019-05-03T04:08:31.755Z,98682.58
2019-05-03T04:11:02.469Z,98690.32
2019-05-03T04:13:32.673Z,98696.44
2019-05-03T04:16:36.236Z,98692.68
2019-05-03T04:19:19.561Z,98700.40
2019-05-03T04:21:51.047Z,98698.06
2019-05-03T04:24:30.862Z,98700.93
2019-05-03T04:27:17.977Z,98714.87
2019-05-03T04:29:40.738Z,98719.67
2019-05-03T04:32:12.048Z,98710.95
2019-05-03T04:34:45.043Z,98723.94
2019-05-03T04:37:16.317Z,98737.69
2019-05-03T04:39:46.624Z,98726.13
2019-05-03T04:42:16.971Z,98721.72
2019-05-03T04:44:47.104Z,98723.31
2019-05-03T04:47:17.453Z,98726.59
2019-05-03T04:49:47.353Z,98726.34
2019-05-03T04:52:20.571Z,98729.75
2019-05-03T04:54:58.700Z,98740.97
2019-05-03T04:57:39.740Z,98744.50
2019-05-03T05:00:06.059Z,98749.41
2019-05-03T05:02:35.676Z,98671.23
2019-05-03T05:05:06.407Z,98758.80
2019-05-03T05:07:36.558Z,98762.77
2019-05-03T05:10:07.278Z,98767.56
2019-05-03T05:12:37.886Z,98770.92
2019-05-03T05:15:08.005Z,98779.66
2019-05-03T05:17:56.120Z,98779.55
2019-05-03T05:20:36.203Z,98784.53
2019-05-03T05:23:06.538Z,98776.95
2019-05-03T05:25:44.493Z,98788.30
2019-05-03T05:28:36.100Z,98791.08
2019-05-03T05:31:06.505Z,98794.39
2019-05-03T05:33:36.673Z,98791.27
2019-05-03T05:36:07.150Z,98795.52
2019-05-03T05:38:37.184Z,98794.84
2019-05-03T05:41:07.259Z,98705.74
2019-05-03T05:43:37.303Z,98793.27
2019-05-03T05:46:07.432Z,98796.83
2019-05-03T05:48:46.024Z,98798.50
2019-05-03T05:51:16.786Z,98797.48
2019-05-03T05:53:47.111Z,98800.51
2019-05-03T05:56:48.199Z,98715.42
2019-05-03T05:59:26.009Z,98804.66
2019-05-03T06:01:59.606Z,98818.20
2019-05-03T06:04:29.683Z,98819.08
2019-05-03T06:07:27.640Z,98820.37
2019-05-03T06:10:14.702Z,98823.51
2019-05-03T06:13:05.315Z,98828.67
2019-05-03T06:15:46.636Z,98836.04
2019-05-03T06:18:25.048Z,98835.75
2019-05-03T06:21:24.951Z,98842.98
2019-05-03T06:24:04.514Z,98851.31
2019-05-03T06:26:37.727Z,98855.39
2019-05-03T06:29:10.808Z,98857.19
2019-05-03T06:31:55.573Z,98866.23
2019-05-03T06:34:29.026Z,98869.17
2019-05-03T06:37:04.554Z,98875.75
2019-05-03T06:39:39.533Z,98886.56
2019-05-03T06:42:19.161Z,98881.75
2019-05-03T06:44:47.733Z,98787.85
2019-05-03T06:47:21.280Z,98884.62
2019-05-03T06:49:51.251Z,98789.19
2019-05-03T06:52:27.644Z,98893.92
2019-05-03T06:55:00.308Z,98889.47
2019-05-03T06:57:31.741Z,98886.34
2019-05-03T07:00:35.107Z,98890.69
2019-05-03T07:03:29.119Z,98897.27
2019-05-03T07:06:34.470Z,98894.84
2019-05-03T07:09:18.223Z,98893.48
2019-05-03T07:11:48.263Z,98803.80
2019-05-03T07:14:17.669Z,98892.56
2019-05-03T07:16:48.278Z,98888.55
2019-05-03T07:19:18.636Z,98891.05
2019-05-03T07:21:48.933Z,98893.61
2019-05-03T07:24:19.483Z,98898.98
2019-05-03T07:26:49.812Z,98897.16
2019-05-03T07:29:22.124Z,98893.37
2019-05-03T07:31:55.218Z,98900.94
2019-05-03T07:34:27.308Z,98893.66
2019-05-03T07:36:58.876Z,98907.88
2019-05-03T07:39:31.665Z,98902.23
2019-05-03T07:42:02.901Z,98889.72
2019-05-03T07:44:34.984Z,98893.17
2019-05-03T07:47:09.071Z,98901.76
2019-05-03T07:49:41.153Z,98893.84
2019-05-03T07:52:12.265Z,98895.75
2019-05-03T07:54:46.260Z,98893.52
2019-05-03T07:57:29.482Z,98896.83
2019-05-03T08:00:17.340Z,98893.22
2019-05-03T08:02:47.448Z,98806.28
2019-05-03T08:05:18.607Z,98888.11
2019-05-03T08:07:49.259Z,98883.75
2019-05-03T08:10:19.941Z,98894.94
2019-05-03T08:12:50.117Z,98900.84
2019-05-03T08:15:20.216Z,98889.64
2019-05-03T08:17:55.427Z,98898.02
2019-05-03T08:20:26.249Z,98891.42
2019-05-03T08:22:59.933Z,98884.19
2019-05-03T08:25:30.950Z,98882.86
2019-05-03T08:28:01.249Z,98888.13
2019-05-03T08:30:44.525Z,98883.38
2019-05-03T08:33:24.949Z,98879.28
2019-05-03T08:35:55.892Z,98884.41
2019-05-03T08:38:26.075Z,98885.02
2019-05-03T08:40:58.004Z,98890.69
2019-05-03T08:43:28.406Z,98885.37
2019-05-03T08:46:04.517Z,98879.86
2019-05-03T08:48:35.433Z,98878.88
2019-05-03T08:51:06.712Z,98882.49
2019-05-03T08:53:36.921Z,98884.28
2019-05-03T08:56:07.187Z,98881.46
2019-05-03T08:58:37.386Z,98877.51
2019-05-03T09:01:08.353Z,98885.41
2019-05-03T09:03:41.545Z,98879.25
2019-05-03T09:06:12.767Z,98876.66
2019-05-03T09:08:42.885Z,98884.33
2019-05-03T09:11:15.623Z,98875.09
2019-05-03T09:14:01.706Z,98868.57
2019-05-03T09:16:31.977Z,98865.14
2019-05-03T09:19:02.272Z,98853.12
2019-05-03T09:21:34.808Z,98856.08
2019-05-03T09:24:09.869Z,98861.74
2019-05-03T09:26:41.471Z,98776.91
2019-05-03T09:29:12.209Z,98852.14
2019-05-03T09:31:44.666Z,98762.73
2019-05-03T09:34:16.196Z,98847.16
2019-05-03T09:36:47.468Z,98847.41
2019-05-03T09:39:17.947Z,98845.36
2019-05-03T09:41:48.139Z,98844.52
2019-05-03T09:44:18.524Z,98838.23
2019-05-03T09:46:49.175Z,98849.77
2019-05-03T09:49:19.986Z,98851.81
2019-05-03T09:51:50.303Z,98851.80
2019-05-03T09:54:28.314Z,98853.59
2019-05-03T09:57:02.171Z,98847.58
2019-05-03T09:59:32.605Z,98848.30
2019-05-03T10:02:04.811Z,98850.80
2019-05-03T10:04:36.741Z,98848.38
2019-05-03T10:07:08.751Z,98852.59
2019-05-03T10:09:39.237Z,98850.92
2019-05-03T10:12:15.989Z,98852.42
2019-05-03T10:14:45.847Z,98850.97
2019-05-03T10:17:35.341Z,98850.54
2019-05-03T10:20:07.330Z,98847.06
2019-05-03T10:22:38.030Z,98840.67
2019-05-03T10:25:09.065Z,98854.75
2019-05-03T10:27:46.924Z,98840.84
2019-05-03T10:30:28.196Z,98847.89
2019-05-03T10:33:25.817Z,98811.97
2019-05-03T10:35:55.630Z,98842.44
2019-05-03T10:38:25.612Z,98847.11
2019-05-03T10:40:57.466Z,98846.59
2019-05-03T10:43:27.927Z,98849.87
2019-05-03T10:45:59.845Z,98850.54
2019-05-03T10:48:35.346Z,98848.27
2019-05-03T10:51:08.190Z,98849.45
2019-05-03T10:53:42.125Z,98845.52
2019-05-03T10:56:23.416Z,98853.46
2019-05-03T10:58:55.123Z,98851.72
2019-05-03T11:01:35.900Z,98855.53
2019-05-03T11:04:07.317Z,98850.73
2019-05-03T11:06:37.834Z,98857.97
2019-05-03T11:09:08.661Z,98853.02
2019-05-03T11:11:39.025Z,98849.16
2019-05-03T11:14:09.054Z,98850.52
2019-05-03T11:16:39.377Z,98855.42
2019-05-03T11:19:09.536Z,98852.71
2019-05-03T11:21:40.108Z,98850.35
2019-05-03T11:24:11.296Z,98842.81
2019-05-03T11:26:45.235Z,98845.16
2019-05-03T11:29:15.853Z,98840.02
2019-05-03T11:31:59.698Z,98833.05
2019-05-03T11:34:35.560Z,98833.36
2019-05-03T11:37:31.768Z,98847.36
2019-05-03T11:40:01.897Z,98853.88
2019-05-03T11:42:32.279Z,98841.28
2019-05-03T11:45:06.166Z,98838.12
2019-05-03T11:47:36.248Z,98742.98
2019-05-03T11:50:07.643Z,98852.48
2019-05-03T11:52:39.139Z,98857.87
2019-05-03T11:55:11.960Z,98845.91
2019-05-03T11:57:44.848Z,98841.63
2019-05-03T12:00:18.261Z,98823.97
2019-05-03T12:02:56.973Z,98827.20
2019-05-03T12:05:29.453Z,98839.36
2019-05-03T12:07:59.525Z,98842.87
2019-05-03T12:10:46.125Z,98844.61
2019-05-03T12:13:15.750Z,98834.73
2019-05-03T12:15:46.519Z,98832.22
2019-05-03T12:18:17.318Z,98831.16
2019-05-03T12:20:48.910Z,98842.92
2019-05-03T12:23:20.397Z,98838.17
2019-05-03T12:25:51.552Z,98859.86
2019-05-03T12:28:22.743Z,98843.79
2019-05-03T12:30:57.654Z,98842.34
2019-05-03T12:33:28.798Z,98848.45
2019-05-03T12:35:59.825Z,98848.38
2019-05-03T12:38:30.798Z,98853.33
2019-05-03T12:41:02.507Z,98844.73
2019-05-03T12:43:42.600Z,98841.13
2019-05-03T12:46:16.881Z,98837.96
2019-05-03T12:48:47.270Z,98838.17
2019-05-03T12:51:17.479Z,98838.91
2019-05-03T12:53:48.577Z,98828.48
2019-05-03T12:56:24.365Z,98832.41
2019-05-03T12:59:05.825Z,98728.23
2019-05-03T13:01:55.553Z,98807.85
2019-05-03T13:04:28.593Z,98807.41
2019-05-03T13:07:08.947Z,98815.25
2019-05-03T13:09:39.512Z,98811.84
2019-05-03T13:12:14.760Z,98820.63
2019-05-03T13:14:50.526Z,98815.16
2019-05-03T13:17:37.677Z,98808.33
2019-05-03T13:20:17.116Z,98818.68
2019-05-03T13:22:51.314Z,98801.55
2019-05-03T13:25:21.570Z,98799.20
2019-05-03T13:27:51.908Z,98800.23
2019-05-03T13:30:24.950Z,98792.86
2019-05-03T13:32:55.010Z,98798.39
2019-05-03T13:35:25.786Z,98807.08
2019-05-03T13:37:56.477Z,98805.16
2019-05-03T13:40:27.013Z,98806.02
2019-05-03T13:43:03.521Z,98794.95
2019-05-03T13:45:31.997Z,98798.41
2019-05-03T13:48:04.960Z,98710.36
2019-05-03T13:50:35.420Z,98790.77
2019-05-03T13:53:09.078Z,98780.42
2019-05-03T13:55:39.169Z,98775.41
2019-05-03T13:58:09.739Z,98778.02
2019-05-03T14:00:45.367Z,98768.97
2019-05-03T14:03:16.763Z,98718.03
2019-05-03T14:05:47.176Z,98775.43
2019-05-03T14:08:18.048Z,98768.53
2019-05-03T14:10:50.058Z,98765.88
2019-05-03T14:13:26.223Z,98692.13
2019-05-03T14:16:00.039Z,98767.73
2019-05-03T14:18:45.653Z,98753.70
2019-05-03T14:21:27.250Z,98754.78
2019-05-03T14:24:15.660Z,98756.09
2019-05-03T14:26:48.332Z,98765.13
2019-05-03T14:29:19.555Z,98752.66
2019-05-03T14:31:58.874Z,98756.63
2019-05-03T14:34:30.428Z,98763.75
2019-05-03T14:37:07.182Z,98761.83
2019-05-03T14:39:38.906Z,98664.48
2019-05-03T14:42:12.051Z,98757.67
2019-05-03T14:44:42.623Z,98764.59
2019-05-03T14:47:16.665Z,98750.19
2019-05-03T14:49:49.281Z,98746.77
2019-05-03T14:52:17.493Z,98754.76
2019-05-03T14:54:50.030Z,98751.59
2019-05-03T14:57:38.372Z,98747.55
2019-05-03T15:00:31.275Z,98748.59
2019-05-03T15:03:07.702Z,98734.69
2019-05-03T15:05:43.566Z,98741.02
2019-05-03T15:08:15.290Z,98739.70
2019-05-03T15:10:45.692Z,98729.39
2019-05-03T15:13:16.016Z,98729.67
2019-05-03T15:15:46.253Z,98734.44
2019-05-03T15:18:16.680Z,98751.59
2019-05-03T15:20:46.887Z,98741.42
2019-05-03T15:23:17.042Z,98737.49
2019-05-03T15:25:47.327Z,98734.58
2019-05-03T15:28:17.984Z,98736.23
2019-05-03T15:30:48.054Z,98732.02
2019-05-03T15:33:21.079Z,98732.57
2019-05-03T15:35:51.265Z,98740.50
2019-05-03T15:38:21.215Z,98739.72
2019-05-03T15:40:51.325Z,98744.42
2019-05-03T15:43:28.855Z,98753.34
2019-05-03T15:46:06.770Z,98752.30
2019-05-03T15:48:41.525Z,98752.97
2019-05-03T15:51:12.642Z,98748.02
2019-05-03T15:53:44.424Z,98751.61
2019-05-03T15:56:14.741Z,98748.38
2019-05-03T15:58:46.910Z,98743.70
2019-05-03T16:01:17.151Z,98750.70
2019-05-03T16:03:47.349Z,98747.94
2019-05-03T16:06:18.253Z,98742.36
2019-05-03T16:08:48.449Z,98738.92
2019-05-03T16:11:19.668Z,98741.16
2019-05-03T16:13:49.677Z,98745.13
2019-05-03T16:16:19.909Z,98744.78
2019-05-03T16:18:49.960Z,98741.56
2019-05-03T16:21:21.232Z,98752.27
2019-05-03T16:23:55.751Z,98738.20
2019-05-03T16:26:26.100Z,98728.00
2019-05-03T16:29:12.332Z,98733.48
2019-05-03T16:31:42.605Z,98732.93
2019-05-03T16:34:12.705Z,98730.52
2019-05-03T16:36:42.616Z,98736.28
2019-05-03T16:39:12.745Z,98739.54
2019-05-03T16:41:44.665Z,98736.35
2019-05-03T16:44:14.894Z,98734.45
2019-05-03T16:46:46.360Z,98745.37
2019-05-03T16:49:18.250Z,98743.46
2019-05-03T16:51:48.332Z,98733.50
2019-05-03T16:54:18.405Z,98732.67
2019-05-03T16:56:48.590Z,98728.84
2019-05-03T16:59:18.673Z,98736.53
2019-05-03T17:01:48.822Z,98727.28
2019-05-03T17:04:45.183Z,98730.19
2019-05-03T17:07:31.042Z,98720.27
2019-05-03T17:10:07.419Z,98727.47
2019-05-03T17:12:38.753Z,98728.64
2019-05-03T17:15:10.178Z,98729.12
2019-05-03T17:17:40.380Z,98726.91
2019-05-03T17:20:10.891Z,98727.38
2019-05-03T17:22:41.073Z,98732.97
2019-05-03T17:25:11.462Z,98737.10
2019-05-03T17:27:41.658Z,98730.77
2019-05-03T17:30:12.211Z,98729.85
2019-05-03T17:32:42.221Z,98730.37
2019-05-03T17:35:14.378Z,98729.20
2019-05-03T17:37:45.172Z,98734.38
2019-05-03T17:40:46.701Z,98725.07
2019-05-03T17:43:31.706Z,98729.25
2019-05-03T17:46:01.996Z,98720.93
2019-05-03T17:48:32.180Z,98719.27
2019-05-03T17:51:05.661Z,98724.66
2019-05-03T17:53:55.061Z,98717.75
2019-05-03T17:56:34.954Z,98728.05
2019-05-03T17:59:08.718Z,98730.33
2019-05-03T18:01:56.199Z,98725.31
2019-05-03T18:04:37.765Z,98727.19
2019-05-03T18:07:36.576Z,98722.40
2019-05-03T18:10:07.876Z,98725.40
2019-05-03T18:12:37.874Z,98728.08
2019-05-03T18:15:08.498Z,98722.30
2019-05-03T18:17:38.579Z,98721.68
2019-05-03T18:20:08.810Z,98723.92
2019-05-03T18:22:39.250Z,98725.29
2019-05-03T18:25:09.516Z,98725.08
2019-05-03T18:27:40.103Z,98728.03
2019-05-03T18:30:10.810Z,98722.88
2019-05-03T18:32:41.251Z,98724.30
2019-05-03T18:35:11.504Z,98728.87
2019-05-03T18:37:42.057Z,98733.02
2019-05-03T18:40:13.032Z,98736.58
2019-05-03T18:42:47.772Z,98738.55
2019-05-03T18:45:23.268Z,98740.86
2019-05-03T18:47:54.445Z,98740.38
2019-05-03T18:50:24.621Z,98744.80
2019-05-03T18:52:57.831Z,98752.84
2019-05-03T18:55:28.706Z,98751.42
2019-05-03T18:57:58.743Z,98744.71
2019-05-03T19:00:31.942Z,98737.92
2019-05-03T19:03:02.009Z,98747.05
2019-05-03T19:05:34.940Z,98750.67
2019-05-03T19:08:15.438Z,98743.83
2019-05-03T19:10:52.286Z,98744.25
2019-05-03T19:13:30.224Z,98750.30
2019-05-03T19:16:06.414Z,98750.23
2019-05-03T19:18:38.106Z,98747.67
2019-05-03T19:21:08.278Z,98738.14
2019-05-03T19:23:39.455Z,98737.46
2019-05-03T19:26:09.574Z,98738.05
2019-05-03T19:28:39.489Z,98738.72
2019-05-03T19:31:10.081Z,98739.45
2019-05-03T19:33:40.170Z,98733.98
2019-05-03T19:36:10.264Z,98736.15
2019-05-03T19:38:40.664Z,98744.16
2019-05-03T19:41:11.089Z,98738.25
2019-05-03T19:43:41.176Z,98744.23
2019-05-03T19:46:11.753Z,98736.05
2019-05-03T19:48:41.955Z,98741.52
2019-05-03T19:51:14.045Z,98734.13
2019-05-03T19:54:02.976Z,98731.16
2019-05-03T19:59:06.827Z,98732.69
2019-05-03T20:01:49.347Z,98733.97
2019-05-03T20:04:37.676Z,98728.66
2019-05-03T20:07:25.427Z,98729.23
2019-05-03T20:09:56.004Z,98731.77
2019-05-03T20:12:26.390Z,98725.49
2019-05-03T20:14:56.485Z,98721.95
2019-05-03T20:17:28.619Z,98716.67
2019-05-03T20:20:00.556Z,98725.40
2019-05-03T20:22:30.892Z,98721.67
2019-05-03T20:25:01.208Z,98717.98
2019-05-03T20:27:31.470Z,98714.98
2019-05-03T20:30:01.613Z,98715.67
2019-05-03T20:32:31.845Z,98712.26
2019-05-03T20:35:12.902Z,98709.72
2019-05-03T20:37:34.973Z,98704.04
2019-05-03T20:40:09.260Z,98703.63
2019-05-03T20:43:04.943Z,98710.62
2019-05-03T20:46:10.662Z,98701.92
2019-05-03T20:48:44.807Z,98706.91
2019-05-03T20:51:19.961Z,98711.64
2019-05-03T20:53:49.522Z,98710.69
2019-05-03T20:56:20.309Z,98707.16
2019-05-03T20:58:50.529Z,98706.89
2019-05-03T21:01:21.118Z,98706.89
2019-05-03T21:03:51.356Z,98709.86
2019-05-03T21:06:33.090Z,98709.35
2019-05-03T21:08:56.611Z,98710.41
2019-05-03T21:11:26.875Z,98709.18
2019-05-03T21:13:57.337Z,98710.12
2019-05-03T21:16:34.928Z,98708.27
2019-05-03T21:19:27.517Z,98706.45
2019-05-03T21:22:20.599Z,98709.39
2019-05-03T21:25:10.210Z,98706.27
2019-05-03T21:27:40.510Z,98703.07
2019-05-03T21:30:11.025Z,98674.02
2019-05-03T21:32:41.522Z,98703.07
2019-05-03T21:35:14.810Z,98701.77
2019-05-03T21:37:45.979Z,98700.70
2019-05-03T21:40:16.653Z,98692.34
2019-05-03T21:42:47.159Z,98697.40
2019-05-03T21:45:24.702Z,98699.39
2019-05-03T21:48:10.280Z,98694.08
2019-05-03T21:50:40.571Z,98703.66
2019-05-03T21:53:11.281Z,98700.53
2019-05-03T21:55:44.577Z,98696.31
2019-05-03T21:58:16.549Z,98689.98
2019-05-03T22:00:57.839Z,98600.08
2019-05-03T22:03:28.129Z,98690.25
2019-05-03T22:06:01.891Z,98691.39
2019-05-03T22:08:34.944Z,98692.19
2019-05-03T22:11:08.701Z,98688.03
2019-05-03T22:13:38.895Z,98688.03
2019-05-03T22:16:15.513Z,98685.88
2019-05-03T22:18:46.007Z,98676.05
2019-05-03T22:21:26.899Z,98685.72
2019-05-03T22:24:31.639Z,98685.50
2019-05-03T22:27:09.047Z,98678.00
2019-05-03T22:29:39.758Z,98676.03
2019-05-03T22:32:09.967Z,98686.28
2019-05-03T22:34:40.434Z,98675.23
2019-05-03T22:37:11.412Z,98676.78
2019-05-03T22:39:41.854Z,98672.88
2019-05-03T22:42:14.813Z,98672.88
2019-05-03T22:44:45.524Z,98668.66
2019-05-03T22:47:15.689Z,98665.52
2019-05-03T22:49:45.799Z,98665.52
2019-05-03T22:52:16.341Z,98662.95
2019-05-03T22:54:46.900Z,98661.52
2019-05-03T22:57:17.228Z,98660.12
2019-05-03T22:59:47.912Z,98642.31
2019-05-03T23:02:19.209Z,98650.18
2019-05-03T23:04:49.273Z,98644.55
2019-05-03T23:07:20.081Z,98630.67
2019-05-03T23:09:51.780Z,98631.84
2019-05-03T23:12:25.060Z,98631.84
2019-05-03T23:14:55.335Z,98627.84
2019-05-03T23:17:25.647Z,98620.28
2019-05-03T23:20:01.184Z,98616.97
2019-05-03T23:22:32.555Z,98616.97
2019-05-03T23:25:05.224Z,98612.87
2019-05-03T23:27:37.114Z,98612.87
2019-05-03T23:30:09.160Z,98610.83
2019-05-03T23:32:39.804Z,98608.83
2019-05-03T23:35:10.300Z,98607.63
2019-05-03T23:37:40.647Z,98604.29
2019-05-03T23:40:11.062Z,98605.59
2019-05-03T23:42:43.722Z,98599.96
2019-05-03T23:45:14.889Z,98595.81
2019-05-03T23:47:47.201Z,98593.88
2019-05-03T23:50:19.871Z,98586.32
2019-05-03T23:52:49.790Z,98581.34
2019-05-03T23:55:37.332Z,98583.13
2019-05-03T23:58:07.619Z,98567.82
